createdAt,value
2023-04-16T00:00:27.857Z,101823.64
2023-04-16T00:01:29.705Z,101827.91
2023-04-16T00:02:31.654Z,101820.13
2023-04-16T00:03:33.918Z,101823.53
2023-04-16T00:04:36.047Z,101820.94
2023-04-16T00:05:37.924Z,101822.66
2023-04-16T00:06:39.877Z,101824.38
2023-04-16T00:07:41.686Z,101826.13
2023-04-16T00:08:43.512Z,101828.72
2023-04-16T00:09:45.281Z,101827.03
2023-04-16T00:10:47.076Z,101822.72
2023-04-16T00:11:48.927Z,101826.23
2023-04-16T00:12:50.729Z,101826.23
2023-04-16T00:13:52.537Z,101832.39
2023-04-16T00:14:54.336Z,101830.66
2023-04-16T00:15:56.169Z,101833.26
2023-04-16T00:16:58.032Z,101827.20
2023-04-16T00:17:59.980Z,101826.19
2023-04-16T00:19:01.784Z,101828.78
2023-04-16T00:20:03.589Z,101824.30
2023-04-16T00:21:05.409Z,101830.34
2023-04-16T00:22:07.246Z,101821.65
2023-04-16T00:23:09.054Z,101829.43
2023-04-16T00:24:10.859Z,101830.39
2023-04-16T00:25:12.661Z,101821.65
2023-04-16T00:26:14.474Z,101830.34
2023-04-16T00:27:16.321Z,101826.02
2023-04-16T00:28:18.119Z,101825.91
2023-04-16T00:29:19.822Z,101827.69
2023-04-16T00:30:21.629Z,101831.16
2023-04-16T00:31:23.486Z,101827.69
2023-04-16T00:32:25.298Z,101827.69
2023-04-16T00:33:27.187Z,101827.69
2023-04-16T00:34:29.003Z,101823.31
2023-04-16T00:35:30.818Z,101826.78
2023-04-16T00:36:32.642Z,101831.91
2023-04-16T00:37:34.461Z,101828.45
2023-04-16T00:38:36.282Z,101824.98
2023-04-16T00:39:38.078Z,101824.08
2023-04-16T00:40:39.882Z,101828.45
2023-04-16T00:41:42.100Z,101819.73
2023-04-16T00:42:43.936Z,101821.31
2023-04-16T00:43:45.752Z,101825.63
2023-04-16T00:44:47.563Z,101825.58
2023-04-16T00:45:49.357Z,101824.70
2023-04-16T00:46:51.162Z,101824.70
2023-04-16T00:47:53.047Z,101815.20
2023-04-16T00:48:54.907Z,101829.89
2023-04-16T00:49:56.716Z,101816.87
2023-04-16T00:50:58.525Z,101819.34
2023-04-16T00:52:00.320Z,101825.30
2023-04-16T00:53:02.172Z,101822.65
2023-04-16T00:54:03.979Z,101825.19
2023-04-16T00:55:05.769Z,101831.13
2023-04-16T00:56:07.676Z,101824.16
2023-04-16T00:57:09.485Z,101827.61
2023-04-16T00:58:11.341Z,101825.02
2023-04-16T00:59:13.137Z,101826.70
2023-04-16T01:00:14.949Z,101831.95
2023-04-16T01:01:16.812Z,101827.61
2023-04-16T01:02:18.725Z,101827.61
2023-04-16T01:03:20.751Z,101830.14
2023-04-16T01:04:22.897Z,101835.27
2023-04-16T01:05:24.731Z,101831.77
2023-04-16T01:06:26.533Z,101838.73
2023-04-16T01:07:28.342Z,101834.48
2023-04-16T01:08:30.241Z,101837.98
2023-04-16T01:09:31.994Z,101838.86
2023-04-16T01:10:33.794Z,101833.61
2023-04-16T01:11:35.592Z,101830.09
2023-04-16T01:12:37.398Z,101835.22
2023-04-16T01:13:39.366Z,101843.00
2023-04-16T01:14:41.349Z,101836.09
2023-04-16T01:15:43.185Z,101829.13
2023-04-16T01:16:45.067Z,101841.28
2023-04-16T01:17:46.938Z,101829.19
2023-04-16T01:18:48.729Z,101830.09
2023-04-16T01:19:50.534Z,101833.55
2023-04-16T01:20:52.336Z,101830.96
2023-04-16T01:21:54.131Z,101831.83
2023-04-16T01:22:55.955Z,101823.18
2023-04-16T01:23:57.784Z,101821.45
2023-04-16T01:24:59.605Z,101822.36
2023-04-16T01:26:01.398Z,101825.83
2023-04-16T01:27:03.200Z,101825.77
2023-04-16T01:28:05.014Z,101831.77
2023-04-16T01:29:06.914Z,101833.55
2023-04-16T01:30:09.048Z,101824.05
2023-04-16T01:31:10.922Z,101820.59
2023-04-16T01:32:12.703Z,101827.49
2023-04-16T01:33:14.474Z,101817.94
2023-04-16T01:34:16.315Z,101820.53
2023-04-16T01:35:18.149Z,101822.20
2023-04-16T01:36:20.049Z,101823.02
2023-04-16T01:37:21.841Z,101821.23
2023-04-16T01:38:23.655Z,101823.83
2023-04-16T01:39:25.504Z,101822.95
2023-04-16T01:40:27.315Z,101820.41
2023-04-16T01:41:29.114Z,101815.06
2023-04-16T01:42:30.922Z,101828.14
2023-04-16T01:43:32.724Z,101822.89
2023-04-16T01:44:34.473Z,101820.25
2023-04-16T01:45:36.296Z,101831.44
2023-04-16T01:46:38.194Z,101826.24
2023-04-16T01:47:40.062Z,101821.97
2023-04-16T01:48:41.910Z,101819.31
2023-04-16T01:49:43.759Z,101821.91
2023-04-16T01:50:45.573Z,101824.44
2023-04-16T01:51:47.384Z,101816.58
2023-04-16T01:52:49.195Z,101817.48
2023-04-16T01:53:50.997Z,101820.02
2023-04-16T01:54:52.862Z,101822.48
2023-04-16T01:55:54.666Z,101816.41
2023-04-16T01:56:56.472Z,101812.01
2023-04-16T01:57:58.267Z,101818.82
2023-04-16T01:59:00.117Z,101814.48
2023-04-16T02:00:01.928Z,101815.36
2023-04-16T02:01:03.780Z,101807.52
2023-04-16T02:02:05.601Z,101816.17
2023-04-16T02:03:07.604Z,101811.83
2023-04-16T02:04:09.706Z,101816.11
2023-04-16T02:05:11.512Z,101814.42
2023-04-16T02:06:13.462Z,101817.95
2023-04-16T02:07:15.278Z,101810.92
2023-04-16T02:08:17.087Z,101810.92
2023-04-16T02:09:18.872Z,101801.46
2023-04-16T02:10:20.707Z,101805.80
2023-04-16T02:11:22.522Z,101808.34
2023-04-16T02:12:24.334Z,101808.34
2023-04-16T02:13:26.136Z,101804.87
2023-04-16T02:14:27.922Z,101811.83
2023-04-16T02:15:29.760Z,101810.05
2023-04-16T02:16:31.641Z,101811.72
2023-04-16T02:17:33.507Z,101812.59
2023-04-16T02:18:35.278Z,101811.77
2023-04-16T02:19:37.074Z,101810.92
2023-04-16T02:20:38.922Z,101814.42
2023-04-16T02:21:40.728Z,101811.83
2023-04-16T02:22:42.541Z,101812.70
2023-04-16T02:23:44.336Z,101817.95
2023-04-16T02:24:46.153Z,101818.77
2023-04-16T02:25:48.008Z,101809.19
2023-04-16T02:26:49.817Z,101806.53
2023-04-16T02:27:51.624Z,101812.59
2023-04-16T02:28:53.421Z,101815.18
2023-04-16T02:29:55.225Z,101809.06
2023-04-16T02:30:57.057Z,101813.23
2023-04-16T02:31:58.934Z,101811.39
2023-04-16T02:33:00.826Z,101817.42
2023-04-16T02:34:02.678Z,101815.64
2023-04-16T02:35:04.481Z,101809.59
2023-04-16T02:36:06.620Z,101812.99
2023-04-16T02:37:08.308Z,101812.99
2023-04-16T02:38:10.112Z,101812.99
2023-04-16T02:39:11.904Z,101815.58
2023-04-16T02:40:13.712Z,101816.39
2023-04-16T02:41:15.550Z,101812.87
2023-04-16T02:42:17.357Z,101818.00
2023-04-16T02:43:19.157Z,101817.13
2023-04-16T02:44:20.954Z,101821.34
2023-04-16T02:45:22.789Z,101825.66
2023-04-16T02:46:24.758Z,101816.95
2023-04-16T02:47:26.795Z,101814.36
2023-04-16T02:48:28.557Z,101818.75
2023-04-16T02:49:30.366Z,101825.66
2023-04-16T02:50:32.155Z,101824.84
2023-04-16T02:51:33.989Z,101822.94
2023-04-16T02:52:35.798Z,101832.38
2023-04-16T02:53:37.602Z,101823.69
2023-04-16T02:54:39.409Z,101826.34
2023-04-16T02:55:41.206Z,101828.12
2023-04-16T02:56:43.040Z,101827.31
2023-04-16T02:57:44.831Z,101824.66
2023-04-16T02:58:46.642Z,101825.53
2023-04-16T02:59:48.438Z,101824.72
2023-04-16T03:00:50.241Z,101823.87
2023-04-16T03:01:52.218Z,101830.83
2023-04-16T03:02:54.338Z,101835.20
2023-04-16T03:03:56.330Z,101828.99
2023-04-16T03:04:58.105Z,101831.52
2023-04-16T03:05:59.910Z,101834.05
2023-04-16T03:07:01.752Z,101838.30
2023-04-16T03:08:03.558Z,101836.53
2023-04-16T03:09:05.347Z,101847.73
2023-04-16T03:10:07.266Z,101849.48
2023-04-16T03:11:09.072Z,101856.50
2023-04-16T03:12:10.911Z,101854.72
2023-04-16T03:13:12.702Z,101864.22
2023-04-16T03:14:14.503Z,101857.25
2023-04-16T03:15:16.305Z,101862.44
2023-04-16T03:16:18.142Z,101861.56
2023-04-16T03:17:19.993Z,101864.22
2023-04-16T03:18:21.753Z,101863.41
2023-04-16T03:19:23.441Z,101860.81
2023-04-16T03:20:25.263Z,101866.87
2023-04-16T03:21:27.061Z,101865.99
2023-04-16T03:22:28.890Z,101867.62
2023-04-16T03:23:30.686Z,101858.97
2023-04-16T03:24:32.484Z,101871.17
2023-04-16T03:25:34.294Z,101870.20
2023-04-16T03:26:36.099Z,101864.22
2023-04-16T03:27:39.014Z,101859.84
2023-04-16T03:28:40.817Z,101861.63
2023-04-16T03:29:42.616Z,101865.94
2023-04-16T03:30:44.425Z,101868.59
2023-04-16T03:31:46.231Z,101861.75
2023-04-16T03:32:48.130Z,101866.17
2023-04-16T03:33:49.943Z,101869.77
2023-04-16T03:34:51.746Z,101864.70
2023-04-16T03:35:53.564Z,101871.66
2023-04-16T03:36:55.369Z,101870.82
2023-04-16T03:37:57.216Z,101866.55
2023-04-16T03:38:59.013Z,101870.87
2023-04-16T03:40:00.821Z,101871.00
2023-04-16T03:41:02.641Z,101870.94
2023-04-16T03:42:04.461Z,101868.29
2023-04-16T03:43:06.308Z,101866.66
2023-04-16T03:44:08.109Z,101870.13
2023-04-16T03:45:09.903Z,101867.47
2023-04-16T03:46:11.789Z,101865.81
2023-04-16T03:47:13.620Z,101871.16
2023-04-16T03:48:15.464Z,101865.19
2023-04-16T03:49:17.263Z,101876.52
2023-04-16T03:50:19.076Z,101877.51
2023-04-16T03:51:20.886Z,101877.56
2023-04-16T03:52:22.673Z,101874.16
2023-04-16T03:53:24.514Z,101869.91
2023-04-16T03:54:26.316Z,101884.83
2023-04-16T03:55:28.119Z,101879.77
2023-04-16T03:56:29.932Z,101869.51
2023-04-16T03:57:31.724Z,101868.81
2023-04-16T03:58:33.573Z,101874.98
2023-04-16T03:59:35.366Z,101872.51
2023-04-16T04:00:37.189Z,101876.94
2023-04-16T04:01:39.020Z,101875.28
2023-04-16T04:02:40.897Z,101876.20
2023-04-16T04:03:43.046Z,101874.58
2023-04-16T04:04:45.206Z,101877.34
2023-04-16T04:05:47.029Z,101873.94
2023-04-16T04:06:48.851Z,101868.86
2023-04-16T04:07:50.657Z,101874.98
2023-04-16T04:08:52.493Z,101882.81
2023-04-16T04:09:54.280Z,101873.25
2023-04-16T04:10:56.074Z,101871.51
2023-04-16T04:11:57.884Z,101870.72
2023-04-16T04:12:59.794Z,101873.42
2023-04-16T04:14:01.509Z,101875.26
2023-04-16T04:15:03.308Z,101877.91
2023-04-16T04:16:05.120Z,101867.59
2023-04-16T04:17:06.915Z,101875.42
2023-04-16T04:18:08.725Z,101874.66
2023-04-16T04:19:10.747Z,101876.39
2023-04-16T04:20:13.078Z,101877.20
2023-04-16T04:21:14.863Z,101879.86
2023-04-16T04:22:16.673Z,101882.56
2023-04-16T04:23:18.480Z,101877.42
2023-04-16T04:24:20.317Z,101875.70
2023-04-16T04:25:22.130Z,101879.20
2023-04-16T04:26:23.965Z,101869.70
2023-04-16T04:27:25.826Z,101874.83
2023-04-16T04:28:27.636Z,101875.76
2023-04-16T04:29:29.487Z,101879.27
2023-04-16T04:30:31.272Z,101881.91
2023-04-16T04:31:33.100Z,101877.65
2023-04-16T04:32:34.935Z,101881.12
2023-04-16T04:33:36.785Z,101877.65
2023-04-16T04:34:38.639Z,101881.17
2023-04-16T04:35:40.440Z,101876.83
2023-04-16T04:36:42.243Z,101875.16
2023-04-16T04:37:44.044Z,101868.25
2023-04-16T04:38:45.858Z,101883.88
2023-04-16T04:39:47.695Z,101867.37
2023-04-16T04:40:49.487Z,101889.92
2023-04-16T04:41:51.290Z,101877.76
2023-04-16T04:42:53.101Z,101874.89
2023-04-16T04:43:54.906Z,101877.31
2023-04-16T04:44:56.739Z,101878.92
2023-04-16T04:45:58.571Z,101882.34
2023-04-16T04:47:00.443Z,101881.58
2023-04-16T04:48:02.223Z,101879.91
2023-04-16T04:49:04.074Z,101882.51
2023-04-16T04:50:05.977Z,101880.78
2023-04-16T04:51:07.781Z,101887.75
2023-04-16T04:52:09.595Z,101880.89
2023-04-16T04:53:11.407Z,101882.67
2023-04-16T04:54:13.222Z,101892.30
2023-04-16T04:55:15.072Z,101889.70
2023-04-16T04:56:16.868Z,101886.25
2023-04-16T04:57:18.691Z,101886.25
2023-04-16T04:58:20.486Z,101882.84
2023-04-16T04:59:22.300Z,101886.42
2023-04-16T05:00:24.134Z,101887.37
2023-04-16T05:01:25.993Z,101886.58
2023-04-16T05:02:27.888Z,101892.83
2023-04-16T05:03:29.829Z,101882.50
2023-04-16T05:04:31.677Z,101885.96
2023-04-16T05:05:33.513Z,101886.02
2023-04-16T05:06:35.330Z,101886.02
2023-04-16T05:07:37.135Z,101879.84
2023-04-16T05:08:38.934Z,101884.98
2023-04-16T05:09:40.734Z,101873.50
2023-04-16T05:10:42.695Z,101883.00
2023-04-16T05:11:44.501Z,101889.06
2023-04-16T05:12:48.254Z,101881.28
2023-04-16T05:13:49.922Z,101882.24
2023-04-16T05:14:51.712Z,101888.30
2023-04-16T05:15:53.776Z,101888.36
2023-04-16T05:16:55.630Z,101890.90
2023-04-16T05:17:57.499Z,101885.66
2023-04-16T05:18:59.277Z,101878.69
2023-04-16T05:20:01.091Z,101882.24
2023-04-16T05:21:02.953Z,101874.51
2023-04-16T05:22:04.752Z,101883.26
2023-04-16T05:23:06.573Z,101881.56
2023-04-16T05:24:08.390Z,101879.03
2023-04-16T05:25:10.187Z,101880.66
2023-04-16T05:26:12.031Z,101882.44
2023-04-16T05:27:14.979Z,101879.90
2023-04-16T05:28:16.744Z,101892.00
2023-04-16T05:29:18.552Z,101883.37
2023-04-16T05:30:20.370Z,101881.73
2023-04-16T05:31:22.270Z,101877.41
2023-04-16T05:32:24.124Z,101873.89
2023-04-16T05:33:25.923Z,101879.95
2023-04-16T05:34:27.770Z,101883.47
2023-04-16T05:35:29.561Z,101879.19
2023-04-16T05:36:31.399Z,101872.22
2023-04-16T05:37:33.208Z,101868.86
2023-04-16T05:38:35.018Z,101870.66
2023-04-16T05:39:36.830Z,101871.56
2023-04-16T05:40:38.649Z,101872.54
2023-04-16T05:41:40.481Z,101863.98
2023-04-16T05:42:42.276Z,101872.75
2023-04-16T05:43:44.123Z,101858.95
2023-04-16T05:44:45.938Z,101865.13
2023-04-16T05:45:47.731Z,101864.36
2023-04-16T05:46:49.564Z,101874.69
2023-04-16T05:47:51.375Z,101871.33
2023-04-16T05:48:53.203Z,101880.86
2023-04-16T05:49:55.028Z,101873.92
2023-04-16T05:50:56.822Z,101866.08
2023-04-16T05:51:58.667Z,101867.00
2023-04-16T05:53:00.477Z,101860.99
2023-04-16T05:54:02.293Z,101861.09
2023-04-16T05:55:04.115Z,101862.07
2023-04-16T05:56:05.908Z,101870.84
2023-04-16T05:57:07.746Z,101862.28
2023-04-16T05:58:09.561Z,101863.19
2023-04-16T05:59:11.561Z,101868.38
2023-04-16T06:00:13.683Z,101866.66
2023-04-16T06:01:15.493Z,101867.52
2023-04-16T06:02:17.442Z,101865.03
2023-04-16T06:03:19.296Z,101865.13
2023-04-16T06:04:21.233Z,101861.77
2023-04-16T06:05:23.123Z,101861.86
2023-04-16T06:06:24.916Z,101868.84
2023-04-16T06:07:26.644Z,101865.44
2023-04-16T06:08:28.480Z,101867.31
2023-04-16T06:09:30.192Z,101872.66
2023-04-16T06:10:32.097Z,101872.76
2023-04-16T06:11:35.801Z,101881.56
2023-04-16T06:12:37.576Z,101864.29
2023-04-16T06:13:39.460Z,101867.81
2023-04-16T06:14:41.264Z,101868.81
2023-04-16T06:15:43.097Z,101881.13
2023-04-16T06:16:44.900Z,101877.73
2023-04-16T06:17:46.762Z,101870.83
2023-04-16T06:18:48.518Z,101881.33
2023-04-16T06:19:50.330Z,101882.20
2023-04-16T06:20:52.144Z,101865.68
2023-04-16T06:21:53.960Z,101877.00
2023-04-16T06:22:55.799Z,101883.12
2023-04-16T06:23:57.600Z,101876.27
2023-04-16T06:24:59.412Z,101877.23
2023-04-16T06:26:01.221Z,101872.95
2023-04-16T06:27:03.057Z,101881.76
2023-04-16T06:28:04.867Z,101884.50
2023-04-16T06:29:06.724Z,101879.39
2023-04-16T06:30:08.600Z,101879.39
2023-04-16T06:31:10.449Z,101897.64
2023-04-16T06:32:12.225Z,101889.02
2023-04-16T06:33:14.091Z,101890.63
2023-04-16T06:34:15.913Z,101891.52
2023-04-16T06:35:18.843Z,101890.63
2023-04-16T06:36:20.637Z,101895.83
2023-04-16T06:37:22.447Z,101892.35
2023-04-16T06:38:24.286Z,101901.02
2023-04-16T06:39:26.119Z,101895.77
2023-04-16T06:40:27.981Z,101899.33
2023-04-16T06:41:29.747Z,101900.25
2023-04-16T06:42:31.536Z,101891.67
2023-04-16T06:43:33.361Z,101903.08
2023-04-16T06:44:35.167Z,101895.28
2023-04-16T06:45:36.989Z,101895.28
2023-04-16T06:46:38.822Z,101896.25
2023-04-16T06:47:40.710Z,101904.19
2023-04-16T06:48:42.553Z,101892.09
2023-04-16T06:49:44.342Z,101899.94
2023-04-16T06:50:46.148Z,101906.96
2023-04-16T06:51:47.947Z,101898.37
2023-04-16T06:52:49.677Z,101911.48
2023-04-16T06:53:51.799Z,101903.77
2023-04-16T06:54:53.505Z,101898.66
2023-04-16T06:55:55.200Z,101907.41
2023-04-16T06:56:57.021Z,101902.30
2023-04-16T06:57:58.881Z,101911.92
2023-04-16T06:59:00.735Z,101901.56
2023-04-16T07:00:02.547Z,101911.20
2023-04-16T07:01:04.370Z,101907.77
2023-04-16T07:02:06.204Z,101911.25
2023-04-16T07:03:08.348Z,101903.53
2023-04-16T07:04:10.403Z,101905.30
2023-04-16T07:05:12.269Z,101907.08
2023-04-16T07:06:14.181Z,101921.87
2023-04-16T07:07:15.966Z,101911.52
2023-04-16T07:08:17.767Z,101914.98
2023-04-16T07:09:19.622Z,101914.98
2023-04-16T07:10:21.441Z,101914.07
2023-04-16T07:11:23.253Z,101914.07
2023-04-16T07:12:25.051Z,101917.58
2023-04-16T07:13:26.871Z,101900.19
2023-04-16T07:14:28.715Z,101906.34
2023-04-16T07:15:30.511Z,101902.92
2023-04-16T07:16:32.329Z,101903.91
2023-04-16T07:17:34.130Z,101903.09
2023-04-16T07:18:35.985Z,101902.23
2023-04-16T07:19:37.811Z,101903.95
2023-04-16T07:20:39.783Z,101905.66
2023-04-16T07:21:41.591Z,101903.18
2023-04-16T07:22:43.446Z,101899.75
2023-04-16T07:23:45.234Z,101895.45
2023-04-16T07:24:46.991Z,101903.31
2023-04-16T07:25:48.776Z,101896.45
2023-04-16T07:26:50.600Z,101886.95
2023-04-16T07:27:55.424Z,101893.02
2023-04-16T07:28:57.329Z,101901.74
2023-04-16T07:29:59.168Z,101891.28
2023-04-16T07:31:01.007Z,101886.91
2023-04-16T07:32:02.883Z,101892.11
2023-04-16T07:33:04.668Z,101889.50
2023-04-16T07:34:06.525Z,101892.98
2023-04-16T07:35:08.414Z,101888.72
2023-04-16T07:36:10.603Z,101890.46
2023-04-16T07:37:12.405Z,101886.98
2023-04-16T07:38:14.239Z,101888.77
2023-04-16T07:39:16.060Z,101887.11
2023-04-16T07:40:18.021Z,101885.30
2023-04-16T07:41:19.821Z,101887.94
2023-04-16T07:42:21.721Z,101887.16
2023-04-16T07:43:23.590Z,101879.39
2023-04-16T07:44:25.412Z,101877.73
2023-04-16T07:45:27.264Z,101887.36
2023-04-16T07:46:39.384Z,101882.20
2023-04-16T07:47:32.717Z,101883.14
2023-04-16T07:48:34.519Z,101891.08
2023-04-16T07:49:36.445Z,101872.02
2023-04-16T07:50:38.271Z,101874.70
2023-04-16T07:51:40.073Z,101881.73
2023-04-16T07:52:41.877Z,101868.78
2023-04-16T07:53:43.695Z,101884.50
2023-04-16T07:54:45.513Z,101872.45
2023-04-16T07:55:47.356Z,101875.09
2023-04-16T07:56:49.167Z,101885.56
2023-04-16T07:57:50.969Z,101880.39
2023-04-16T07:58:52.781Z,101881.34
2023-04-16T07:59:54.583Z,101875.38
2023-04-16T08:00:56.489Z,101873.71
2023-04-16T08:01:58.292Z,101880.81
2023-04-16T08:03:00.242Z,101873.07
2023-04-16T08:04:02.256Z,101881.83
2023-04-16T08:05:04.237Z,101861.05
2023-04-16T08:06:06.236Z,101867.17
2023-04-16T08:07:08.043Z,101872.42
2023-04-16T08:08:09.938Z,101858.52
2023-04-16T08:09:11.871Z,101876.88
2023-04-16T08:10:14.477Z,101872.64
2023-04-16T08:11:16.414Z,101870.94
2023-04-16T08:12:18.238Z,101860.63
2023-04-16T08:13:20.034Z,101866.81
2023-04-16T08:14:21.859Z,101866.05
2023-04-16T08:15:23.681Z,101863.55
2023-04-16T08:16:25.585Z,101869.70
2023-04-16T08:17:27.362Z,101859.41
2023-04-16T08:18:29.151Z,101859.41
2023-04-16T08:19:30.948Z,101858.58
2023-04-16T08:20:32.878Z,101854.27
2023-04-16T08:21:34.707Z,101856.91
2023-04-16T08:22:36.518Z,101851.75
2023-04-16T08:23:38.310Z,101851.89
2023-04-16T08:24:40.167Z,101848.48
2023-04-16T08:25:41.867Z,101865.91
2023-04-16T08:26:43.708Z,101846.80
2023-04-16T08:27:45.537Z,101847.80
2023-04-16T08:28:47.333Z,101836.43
2023-04-16T08:29:49.172Z,101857.34
2023-04-16T08:30:51.110Z,101846.06
2023-04-16T08:31:53.164Z,101846.09
2023-04-16T08:32:55.028Z,101851.31
2023-04-16T08:33:56.807Z,101849.61
2023-04-16T08:34:58.607Z,101837.46
2023-04-16T08:36:00.421Z,101836.63
2023-04-16T08:37:02.264Z,101842.81
2023-04-16T08:38:04.079Z,101843.68
2023-04-16T08:39:05.897Z,101842.01
2023-04-16T08:40:07.810Z,101835.91
2023-04-16T08:41:09.610Z,101853.31
2023-04-16T08:42:11.455Z,101828.05
2023-04-16T08:43:13.267Z,101839.37
2023-04-16T08:44:15.069Z,101827.16
2023-04-16T08:45:16.880Z,101835.85
2023-04-16T08:46:18.694Z,101827.19
2023-04-16T08:47:20.673Z,101832.47
2023-04-16T08:48:22.552Z,101843.81
2023-04-16T08:49:24.350Z,101830.78
2023-04-16T08:50:26.169Z,101834.30
2023-04-16T08:51:27.968Z,101826.44
2023-04-16T08:52:29.815Z,101829.95
2023-04-16T08:53:31.627Z,101827.44
2023-04-16T08:54:33.462Z,101836.13
2023-04-16T08:55:35.574Z,101841.35
2023-04-16T08:56:37.425Z,101823.98
2023-04-16T08:57:39.227Z,101828.36
2023-04-16T08:58:41.029Z,101823.17
2023-04-16T08:59:42.830Z,101817.11
2023-04-16T09:00:44.654Z,101823.27
2023-04-16T09:01:46.576Z,101825.03
2023-04-16T09:02:48.664Z,101823.33
2023-04-16T09:03:50.741Z,101823.35
2023-04-16T09:04:52.783Z,101811.17
2023-04-16T09:05:54.739Z,101815.61
2023-04-16T09:06:56.713Z,101808.61
2023-04-16T09:07:58.529Z,101831.30
2023-04-16T09:09:00.343Z,101809.57
2023-04-16T09:10:02.168Z,101806.15
2023-04-16T09:11:03.955Z,101826.20
2023-04-16T09:12:05.770Z,101814.91
2023-04-16T09:13:07.590Z,101804.47
2023-04-16T09:14:09.418Z,101820.08
2023-04-16T09:15:11.214Z,101814.85
2023-04-16T09:16:13.029Z,101807.89
2023-04-16T09:17:14.782Z,101815.73
2023-04-16T09:18:16.751Z,101812.21
2023-04-16T09:19:18.564Z,101811.40
2023-04-16T09:20:20.430Z,101803.63
2023-04-16T09:21:23.890Z,101800.17
2023-04-16T09:22:25.925Z,101814.16
2023-04-16T09:23:27.778Z,101825.53
2023-04-16T09:24:29.575Z,101819.41
2023-04-16T09:25:31.420Z,101807.25
2023-04-16T09:26:33.535Z,101805.48
2023-04-16T09:27:35.346Z,101809.86
2023-04-16T09:28:37.173Z,101809.86
2023-04-16T09:29:38.982Z,101801.16
2023-04-16T09:30:40.797Z,101801.19
2023-04-16T09:31:42.666Z,101811.72
2023-04-16T09:32:44.513Z,101809.13
2023-04-16T09:33:46.438Z,101810.90
2023-04-16T09:34:48.249Z,101813.52
2023-04-16T09:35:50.057Z,101791.77
2023-04-16T09:36:51.875Z,101797.00
2023-04-16T09:37:53.667Z,101802.25
2023-04-16T09:38:57.551Z,101803.98
2023-04-16T09:39:59.113Z,101803.14
2023-04-16T09:41:00.900Z,101803.14
2023-04-16T09:42:02.706Z,101807.53
2023-04-16T09:43:04.527Z,101799.72
2023-04-16T09:44:06.375Z,101802.36
2023-04-16T09:45:08.168Z,101791.93
2023-04-16T09:46:10.318Z,101798.08
2023-04-16T09:47:12.091Z,101799.01
2023-04-16T09:48:13.881Z,101801.64
2023-04-16T09:49:15.745Z,101789.52
2023-04-16T09:50:18.647Z,101791.30
2023-04-16T09:51:20.802Z,101795.64
2023-04-16T09:52:22.611Z,101821.80
2023-04-16T09:53:24.404Z,101816.61
2023-04-16T09:54:26.253Z,101803.56
2023-04-16T09:55:28.127Z,101804.48
2023-04-16T09:56:29.938Z,101794.91
2023-04-16T09:57:31.794Z,101798.42
2023-04-16T09:58:33.665Z,101800.16
2023-04-16T09:59:35.512Z,101788.83
2023-04-16T10:00:43.206Z,101801.08
2023-04-16T10:01:41.291Z,101807.20
2023-04-16T10:02:43.231Z,101799.39
2023-04-16T10:03:45.269Z,101806.38
2023-04-16T10:04:47.545Z,101803.74
2023-04-16T10:05:49.608Z,101805.48
2023-04-16T10:06:51.455Z,101808.14
2023-04-16T10:07:53.218Z,101796.82
2023-04-16T10:08:55.161Z,101795.08
2023-04-16T10:09:56.902Z,101795.08
2023-04-16T10:10:58.813Z,101795.10
2023-04-16T10:12:00.528Z,101804.73
2023-04-16T10:13:02.368Z,101784.67
2023-04-16T10:14:04.176Z,101799.51
2023-04-16T10:15:06.029Z,101800.41
2023-04-16T10:16:07.832Z,101796.94
2023-04-16T10:17:09.777Z,101800.45
2023-04-16T10:18:11.769Z,101800.47
2023-04-16T10:19:14.634Z,101802.22
2023-04-16T10:20:17.276Z,101804.86
2023-04-16T10:21:19.187Z,101800.55
2023-04-16T10:22:21.004Z,101789.22
2023-04-16T10:23:22.831Z,101790.14
2023-04-16T10:24:24.621Z,101803.26
2023-04-16T10:25:26.517Z,101804.16
2023-04-16T10:26:28.339Z,101795.48
2023-04-16T10:27:30.143Z,101793.72
2023-04-16T10:28:31.945Z,101796.35
2023-04-16T10:29:33.789Z,101795.53
2023-04-16T10:30:35.809Z,101800.77
2023-04-16T10:31:37.612Z,101802.49
2023-04-16T10:32:39.427Z,101805.09
2023-04-16T10:33:41.203Z,101803.37
2023-04-16T10:34:43.109Z,101787.69
2023-04-16T10:35:46.835Z,101778.94
2023-04-16T10:36:48.649Z,101778.07
2023-04-16T10:37:50.420Z,101799.02
2023-04-16T10:38:52.273Z,101787.69
2023-04-16T10:39:54.118Z,101789.42
2023-04-16T10:40:55.968Z,101783.34
2023-04-16T10:41:57.859Z,101789.42
2023-04-16T10:42:59.656Z,101777.25
2023-04-16T10:44:01.517Z,101779.88
2023-04-16T10:45:03.329Z,101786.83
2023-04-16T10:46:05.391Z,101798.19
2023-04-16T10:47:07.324Z,101793.80
2023-04-16T10:48:09.118Z,101794.65
2023-04-16T10:49:11.207Z,101783.32
2023-04-16T10:50:13.489Z,101787.66
2023-04-16T10:51:15.318Z,101780.66
2023-04-16T10:52:17.454Z,101784.17
2023-04-16T10:53:19.321Z,101786.80
2023-04-16T10:54:21.245Z,101778.95
2023-04-16T10:55:23.070Z,101772.84
2023-04-16T10:56:24.931Z,101775.45
2023-04-16T10:57:26.712Z,101767.62
2023-04-16T10:58:28.540Z,101781.58
2023-04-16T10:59:30.333Z,101788.59
2023-04-16T11:00:32.471Z,101786.84
2023-04-16T11:01:34.334Z,101780.75
2023-04-16T11:02:36.312Z,101775.52
2023-04-16T11:03:38.482Z,101777.29
2023-04-16T11:04:40.436Z,101772.95
2023-04-16T11:05:42.328Z,101788.66
2023-04-16T11:06:44.271Z,101777.35
2023-04-16T11:07:46.082Z,101779.13
2023-04-16T11:08:54.399Z,101776.48
2023-04-16T11:09:51.551Z,101767.73
2023-04-16T11:10:53.361Z,101768.66
2023-04-16T11:11:55.230Z,101763.43
2023-04-16T11:12:57.030Z,101765.19
2023-04-16T11:13:58.894Z,101765.19
2023-04-16T11:15:00.749Z,101764.38
2023-04-16T11:16:02.680Z,101761.79
2023-04-16T11:17:04.462Z,101761.81
2023-04-16T11:18:06.338Z,101765.36
2023-04-16T11:19:08.197Z,101767.13
2023-04-16T11:20:19.245Z,101768.00
2023-04-16T11:21:13.784Z,101769.77
2023-04-16T11:22:15.635Z,101756.70
2023-04-16T11:23:17.449Z,101768.96
2023-04-16T11:24:19.256Z,101761.11
2023-04-16T11:25:21.184Z,101770.73
2023-04-16T11:26:22.979Z,101769.87
2023-04-16T11:27:24.851Z,101758.53
2023-04-16T11:28:26.648Z,101755.05
2023-04-16T11:29:28.459Z,101769.87
2023-04-16T11:30:30.255Z,101768.17
2023-04-16T11:31:32.147Z,101759.46
2023-04-16T11:32:34.307Z,101768.21
2023-04-16T11:33:36.112Z,101757.74
2023-04-16T11:34:37.958Z,101768.23
2023-04-16T11:35:39.779Z,101756.86
2023-04-16T11:36:41.566Z,101758.61
2023-04-16T11:37:43.413Z,101771.67
2023-04-16T11:38:45.217Z,101759.46
2023-04-16T11:39:47.017Z,101755.13
2023-04-16T11:40:48.858Z,101756.86
2023-04-16T11:41:50.655Z,101758.63
2023-04-16T11:42:52.488Z,101763.02
2023-04-16T11:43:54.325Z,101758.66
2023-04-16T11:44:56.179Z,101757.78
2023-04-16T11:45:57.935Z,101749.93